Aviation Digital Data Service (ADDS)

Output produced by METARs form (0847 UTC 22 February 2018)
found at http://www.aviationweather.gov/adds/metars/
 
METAR text: VGHS 220830Z 24008KT 4000 HZ FEW015 SCT100 32/17 Q1008 NOSIG
Conditions at: VGHS (DHAKA , BD) observed 0830 UTC 22 February 2018
Temperature: 32.0°C (90°F)
Dewpoint: 17.0°C (63°F) [RH = 41%]
Pressure (altimeter): 29.76 inches Hg (1008.0 mb)
Winds: from the WSW (240 degrees) at 9 MPH (8 knots; 4.2 m/s)
Visibility: 2.49 miles (4.01 km)
Ceiling: at least 12,000 feet AGL
Clouds: few clouds at 1500 feet AGL
scattered clouds at 10000 feet AGL
Weather: HZ  (haze)

METAR text: VGHS 220800Z 20006KT 4000 HZ FEW015 SCT100 33/20 Q1009 NOSIG
Conditions at: VGHS (DHAKA , BD) observed 0800 UTC 22 February 2018
Temperature: 33.0°C (91°F)
Dewpoint: 20.0°C (68°F) [RH = 46%]
Pressure (altimeter): 29.79 inches Hg (1009.0 mb)
Winds: from the SSW (200 degrees) at 7 MPH (6 knots; 3.1 m/s)
Visibility: 2.49 miles (4.01 km)
Ceiling: at least 12,000 feet AGL
Clouds: few clouds at 1500 feet AGL
scattered clouds at 10000 feet AGL
Weather: HZ  (haze)

METAR text: VGHS 220730Z 22004KT 4000 HZ FEW015 SCT100 32/18 Q1009 NOSIG
Conditions at: VGHS (DHAKA , BD) observed 0730 UTC 22 February 2018
Temperature: 32.0°C (90°F)
Dewpoint: 18.0°C (64°F) [RH = 43%]
Pressure (altimeter): 29.79 inches Hg (1009.0 mb)
Winds: from the SW (220 degrees) at 5 MPH (4 knots; 2.1 m/s)
Visibility: 2.49 miles (4.01 km)
Ceiling: at least 12,000 feet AGL
Clouds: few clouds at 1500 feet AGL
scattered clouds at 10000 feet AGL
Weather: HZ  (haze)

METAR text: VGHS 220700Z 14003KT 4000 HZ NSC 32/18 Q1010 NOSIG
Conditions at: VGHS (DHAKA , BD) observed 0700 UTC 22 February 2018
Temperature: 32.0°C (90°F)
Dewpoint: 18.0°C (64°F) [RH = 43%]
Pressure (altimeter): 29.82 inches Hg (1010.0 mb)
Winds: from the SE (140 degrees) at 3 MPH (3 knots; 1.6 m/s)
Visibility: 2.49 miles (4.01 km)
Ceiling: at least 12,000 feet AGL
Clouds: sky clear below 12,000 feet AGL
Weather: HZ  (haze)

METAR text: VGHS 220630Z 30003KT 4000 HZ NSC 32/20 Q1010 NOSIG
Conditions at: VGHS (DHAKA , BD) observed 0630 UTC 22 February 2018
Temperature: 32.0°C (90°F)
Dewpoint: 20.0°C (68°F) [RH = 49%]
Pressure (altimeter): 29.82 inches Hg (1010.0 mb)
Winds: from the WNW (300 degrees) at 3 MPH (3 knots; 1.6 m/s)
Visibility: 2.49 miles (4.01 km)
Ceiling: at least 12,000 feet AGL
Clouds: sky clear below 12,000 feet AGL
Weather: HZ  (haze)

METAR text: VGHS 220600Z 20003KT 4000 HZ NSC 32/20 Q1011 NOSIG
Conditions at: VGHS (DHAKA , BD) observed 0600 UTC 22 February 2018
Temperature: 32.0°C (90°F)
Dewpoint: 20.0°C (68°F) [RH = 49%]
Pressure (altimeter): 29.85 inches Hg (1011.0 mb)
Winds: from the SSW (200 degrees) at 3 MPH (3 knots; 1.6 m/s)
Visibility: 2.49 miles (4.01 km)
Ceiling: at least 12,000 feet AGL
Clouds: sky clear below 12,000 feet AGL
Weather: HZ  (haze)

METAR text: VGHS 220530Z 07003KT 3500 HZ NSC 31/21 Q1011 NOSIG
Conditions at: VGHS (DHAKA , BD) observed 0530 UTC 22 February 2018
Temperature: 31.0°C (88°F)
Dewpoint: 21.0°C (70°F) [RH = 55%]
Pressure (altimeter): 29.85 inches Hg (1011.0 mb)
Winds: from the ENE (70 degrees) at 3 MPH (3 knots; 1.6 m/s)
Visibility: 2.17 miles (3.49 km)
Ceiling: at least 12,000 feet AGL
Clouds: sky clear below 12,000 feet AGL
Weather: HZ  (haze)

METAR text: VGHS 220500Z 06003KT 3500 HZ NSC 30/20 Q1012 NOSIG
Conditions at: VGHS (DHAKA , BD) observed 0500 UTC 22 February 2018
Temperature: 30.0°C (86°F)
Dewpoint: 20.0°C (68°F) [RH = 55%]
Pressure (altimeter): 29.88 inches Hg (1012.0 mb)
Winds: from the ENE (60 degrees) at 3 MPH (3 knots; 1.6 m/s)
Visibility: 2.17 miles (3.49 km)
Ceiling: at least 12,000 feet AGL
Clouds: sky clear below 12,000 feet AGL
Weather: HZ  (haze)

METAR text: VGHS 220430Z 16004KT 2500 HZ NSC 28/20 Q1012 BECMG S/VIS 3000M
Conditions at: VGHS (DHAKA , BD) observed 0430 UTC 22 February 2018
Temperature: 28.0°C (82°F)
Dewpoint: 20.0°C (68°F) [RH = 62%]
Pressure (altimeter): 29.88 inches Hg (1012.0 mb)
Winds: from the SSE (160 degrees) at 5 MPH (4 knots; 2.1 m/s)
Visibility: 1.55 miles (2.49 km)
Ceiling: at least 12,000 feet AGL
Clouds: sky clear below 12,000 feet AGL
Weather: HZ  (haze)

METAR text: VGHS 220400Z 11005KT 2000 HZ NSC 27/20 Q1012 BECMG S/VIS 3000M
Conditions at: VGHS (DHAKA , BD) observed 0400 UTC 22 February 2018
Temperature: 27.0°C (81°F)
Dewpoint: 20.0°C (68°F) [RH = 66%]
Pressure (altimeter): 29.88 inches Hg (1012.0 mb)
Winds: from the ESE (110 degrees) at 6 MPH (5 knots; 2.6 m/s)
Visibility: 1.24 miles (2.00 km)
Ceiling: at least 12,000 feet AGL
Clouds: sky clear below 12,000 feet AGL
Weather: HZ  (haze)

METAR text: VGHS 220030Z 00000KT 1100 BR NSC 21/18 Q1010 TEMPO S/VIS 0800M
Conditions at: VGHS (DHAKA , BD) observed 0030 UTC 22 February 2018
Temperature: 21.0°C (70°F)
Dewpoint: 18.0°C (64°F) [RH = 83%]
Pressure (altimeter): 29.82 inches Hg (1010.0 mb)
Winds: calm
Visibility: 0.68 miles (1.09 km)
Ceiling: at least 12,000 feet AGL
Clouds: sky clear below 12,000 feet AGL
Weather: BR  (mist)

METAR text: VGHS 220000Z 00000KT 1200 BR NSC 21/18 Q1010 TEMPO S/VIS 0800M
Conditions at: VGHS (DHAKA , BD) observed 0000 UTC 22 February 2018
Temperature: 21.0°C (70°F)
Dewpoint: 18.0°C (64°F) [RH = 83%]
Pressure (altimeter): 29.82 inches Hg (1010.0 mb)
Winds: calm
Visibility: 0.75 miles (1.21 km)
Ceiling: at least 12,000 feet AGL
Clouds: sky clear below 12,000 feet AGL
Weather: BR  (mist)

METAR text: VGHS 212330Z 12003KT 1200 BR NSC 21/18 Q1010 TEMPO S/VIS 1000M
Conditions at: VGHS (DHAKA , BD) observed 2330 UTC 21 February 2018
Temperature: 21.0°C (70°F)
Dewpoint: 18.0°C (64°F) [RH = 83%]
Pressure (altimeter): 29.82 inches Hg (1010.0 mb)
Winds: from the ESE (120 degrees) at 3 MPH (3 knots; 1.6 m/s)
Visibility: 0.75 miles (1.21 km)
Ceiling: at least 12,000 feet AGL
Clouds: sky clear below 12,000 feet AGL
Weather: BR  (mist)

METAR text: VGHS 212300Z 00000KT 1400 BR SCT100 21/17 Q1010 TEMPO S/VIS 1200M
Conditions at: VGHS (DHAKA , BD) observed 2300 UTC 21 February 2018
Temperature: 21.0°C (70°F)
Dewpoint: 17.0°C (63°F) [RH = 78%]
Pressure (altimeter): 29.82 inches Hg (1010.0 mb)
Winds: calm
Visibility: 0.87 miles (1.40 km)
Ceiling: at least 12,000 feet AGL
Clouds: scattered clouds at 10000 feet AGL
Weather: BR  (mist)

METAR text: VGHS 212230Z 00000KT 1600 BR SCT100 22/18 Q1009 TEMPO S/VIS 1400M
Conditions at: VGHS (DHAKA , BD) observed 2230 UTC 21 February 2018
Temperature: 22.0°C (72°F)
Dewpoint: 18.0°C (64°F) [RH = 78%]
Pressure (altimeter): 29.79 inches Hg (1009.0 mb)
Winds: calm
Visibility: 0.99 miles (1.59 km)
Ceiling: at least 12,000 feet AGL
Clouds: scattered clouds at 10000 feet AGL
Weather: BR  (mist)

METAR text: VGHS 212200Z 00000KT 1800 BR SCT100 22/18 Q1009 TEMPO S/VIS 1500M
Conditions at: VGHS (DHAKA , BD) observed 2200 UTC 21 February 2018
Temperature: 22.0°C (72°F)
Dewpoint: 18.0°C (64°F) [RH = 78%]
Pressure (altimeter): 29.79 inches Hg (1009.0 mb)
Winds: calm
Visibility: 1.12 miles (1.80 km)
Ceiling: at least 12,000 feet AGL
Clouds: scattered clouds at 10000 feet AGL
Weather: BR  (mist)

METAR text: VGHS 212130Z 00000KT 2000 HZ SCT100 22/17 Q1009 TEMPO S/VIS 1500M
Conditions at: VGHS (DHAKA , BD) observed 2130 UTC 21 February 2018
Temperature: 22.0°C (72°F)
Dewpoint: 17.0°C (63°F) [RH = 73%]
Pressure (altimeter): 29.79 inches Hg (1009.0 mb)
Winds: calm
Visibility: 1.24 miles (2.00 km)
Ceiling: at least 12,000 feet AGL
Clouds: scattered clouds at 10000 feet AGL
Weather: HZ  (haze)

METAR text: VGHS 212100Z 00000KT 2000 HZ SCT100 22/17 Q1009 TEMPO S/VIS 1500M
Conditions at: VGHS (DHAKA , BD) observed 2100 UTC 21 February 2018
Temperature: 22.0°C (72°F)
Dewpoint: 17.0°C (63°F) [RH = 73%]
Pressure (altimeter): 29.79 inches Hg (1009.0 mb)
Winds: calm
Visibility: 1.24 miles (2.00 km)
Ceiling: at least 12,000 feet AGL
Clouds: scattered clouds at 10000 feet AGL
Weather: HZ  (haze)

METAR text: VGHS 212030Z 00000KT 2500 HZ SCT100 22/17 Q1009 TEMPO S/VIS 2000M
Conditions at: VGHS (DHAKA , BD) observed 2030 UTC 21 February 2018
Temperature: 22.0°C (72°F)
Dewpoint: 17.0°C (63°F) [RH = 73%]
Pressure (altimeter): 29.79 inches Hg (1009.0 mb)
Winds: calm
Visibility: 1.55 miles (2.49 km)
Ceiling: at least 12,000 feet AGL
Clouds: scattered clouds at 10000 feet AGL
Weather: HZ  (haze)

METAR text: VGHS 212000Z 00000KT 3200 HZ SCT100 22/17 Q1010 TEMPO S/VIS 3000M
Conditions at: VGHS (DHAKA , BD) observed 2000 UTC 21 February 2018
Temperature: 22.0°C (72°F)
Dewpoint: 17.0°C (63°F) [RH = 73%]
Pressure (altimeter): 29.82 inches Hg (1010.0 mb)
Winds: calm
Visibility: 1.99 miles (3.20 km)
Ceiling: at least 12,000 feet AGL
Clouds: scattered clouds at 10000 feet AGL
Weather: HZ  (haze)

METAR text: VGHS 211930Z 00000KT 3200 HZ SCT100 23/17 Q1010 TEMPO S/VIS 3000M
Conditions at: VGHS (DHAKA , BD) observed 1930 UTC 21 February 2018
Temperature: 23.0°C (73°F)
Dewpoint: 17.0°C (63°F) [RH = 69%]
Pressure (altimeter): 29.82 inches Hg (1010.0 mb)
Winds: calm
Visibility: 1.99 miles (3.20 km)
Ceiling: at least 12,000 feet AGL
Clouds: scattered clouds at 10000 feet AGL
Weather: HZ  (haze)

METAR text: VGHS 211900Z 00000KT 3200 HZ SCT100 23/17 Q1010 TEMPO S/VIS 3000M
Conditions at: VGHS (DHAKA , BD) observed 1900 UTC 21 February 2018
Temperature: 23.0°C (73°F)
Dewpoint: 17.0°C (63°F) [RH = 69%]
Pressure (altimeter): 29.82 inches Hg (1010.0 mb)
Winds: calm
Visibility: 1.99 miles (3.20 km)
Ceiling: at least 12,000 feet AGL
Clouds: scattered clouds at 10000 feet AGL
Weather: HZ  (haze)

METAR text: VGHS 211830Z 00000KT 3200 HZ SCT100 23/16 Q1010 TEMPO S/VIS 3000M
Conditions at: VGHS (DHAKA , BD) observed 1830 UTC 21 February 2018
Temperature: 23.0°C (73°F)
Dewpoint: 16.0°C (61°F) [RH = 65%]
Pressure (altimeter): 29.82 inches Hg (1010.0 mb)
Winds: calm
Visibility: 1.99 miles (3.20 km)
Ceiling: at least 12,000 feet AGL
Clouds: scattered clouds at 10000 feet AGL
Weather: HZ  (haze)

METAR text: VGHS 211800Z 00000KT 3200 HZ SCT100 23/16 Q1010 TEMPO S/VIS 3000M
Conditions at: VGHS (DHAKA , BD) observed 1800 UTC 21 February 2018
Temperature: 23.0°C (73°F)
Dewpoint: 16.0°C (61°F) [RH = 65%]
Pressure (altimeter): 29.82 inches Hg (1010.0 mb)
Winds: calm
Visibility: 1.99 miles (3.20 km)
Ceiling: at least 12,000 feet AGL
Clouds: scattered clouds at 10000 feet AGL
Weather: HZ  (haze)

METAR text: VGHS 211730Z 00000KT 3200 HZ SCT100 24/16 Q1010 TEMPO S/VIS 3000M
Conditions at: VGHS (DHAKA , BD) observed 1730 UTC 21 February 2018
Temperature: 24.0°C (75°F)
Dewpoint: 16.0°C (61°F) [RH = 61%]
Pressure (altimeter): 29.82 inches Hg (1010.0 mb)
Winds: calm
Visibility: 1.99 miles (3.20 km)
Ceiling: at least 12,000 feet AGL
Clouds: scattered clouds at 10000 feet AGL
Weather: HZ  (haze)

METAR text: VGHS 211700Z 00000KT 3200 HZ SCT100 24/16 Q1011 TEMPO S/VIS 3000M
Conditions at: VGHS (DHAKA , BD) observed 1700 UTC 21 February 2018
Temperature: 24.0°C (75°F)
Dewpoint: 16.0°C (61°F) [RH = 61%]
Pressure (altimeter): 29.85 inches Hg (1011.0 mb)
Winds: calm
Visibility: 1.99 miles (3.20 km)
Ceiling: at least 12,000 feet AGL
Clouds: scattered clouds at 10000 feet AGL
Weather: HZ  (haze)

METAR text: VGHS 211630Z 00000KT 3500 HZ SCT100 24/16 Q1011 NOSIG
Conditions at: VGHS (DHAKA , BD) observed 1630 UTC 21 February 2018
Temperature: 24.0°C (75°F)
Dewpoint: 16.0°C (61°F) [RH = 61%]
Pressure (altimeter): 29.85 inches Hg (1011.0 mb)
Winds: calm
Visibility: 2.17 miles (3.49 km)
Ceiling: at least 12,000 feet AGL
Clouds: scattered clouds at 10000 feet AGL
Weather: HZ  (haze)

METAR text: VGHS 211600Z 00000KT 3500 HZ SCT100 2416 Q1011 NOSIG
Conditions at: VGHS (DHAKA , BD) observed 1600 UTC 21 February 2018
Temperature: missing
Dewpoint: missing
Pressure (altimeter): 29.85 inches Hg (1011.0 mb)
Winds: calm
Visibility: 2.17 miles (3.49 km)
Ceiling: at least 12,000 feet AGL
Clouds: scattered clouds at 10000 feet AGL
Weather: HZ  (haze)

METAR text: VGHS 211530Z 03004KT 3500 HZ SCT100 25/16 Q1010 NOSIG
Conditions at: VGHS (DHAKA , BD) observed 1530 UTC 21 February 2018
Temperature: 25.0°C (77°F)
Dewpoint: 16.0°C (61°F) [RH = 57%]
Pressure (altimeter): 29.82 inches Hg (1010.0 mb)
Winds: from the NNE (30 degrees) at 5 MPH (4 knots; 2.1 m/s)
Visibility: 2.17 miles (3.49 km)
Ceiling: at least 12,000 feet AGL
Clouds: scattered clouds at 10000 feet AGL
Weather: HZ  (haze)

METAR text: VGHS 211500Z 07004KT 3500 HZ SCT100 25/16 Q1010 NOSIG
Conditions at: VGHS (DHAKA , BD) observed 1500 UTC 21 February 2018
Temperature: 25.0°C (77°F)
Dewpoint: 16.0°C (61°F) [RH = 57%]
Pressure (altimeter): 29.82 inches Hg (1010.0 mb)
Winds: from the ENE (70 degrees) at 5 MPH (4 knots; 2.1 m/s)
Visibility: 2.17 miles (3.49 km)
Ceiling: at least 12,000 feet AGL
Clouds: scattered clouds at 10000 feet AGL
Weather: HZ  (haze)

METAR text: VGHS 211430Z 06004KT 3500 HZ SCT100 25/15 Q1010 NOSIG
Conditions at: VGHS (DHAKA , BD) observed 1430 UTC 21 February 2018
Temperature: 25.0°C (77°F)
Dewpoint: 15.0°C (59°F) [RH = 54%]
Pressure (altimeter): 29.82 inches Hg (1010.0 mb)
Winds: from the ENE (60 degrees) at 5 MPH (4 knots; 2.1 m/s)
Visibility: 2.17 miles (3.49 km)
Ceiling: at least 12,000 feet AGL
Clouds: scattered clouds at 10000 feet AGL
Weather: HZ  (haze)

METAR text: VGHS 211400Z 05006KT 3500 HZ SCT100 26/15 Q1010 NOSIG
Conditions at: VGHS (DHAKA , BD) observed 1400 UTC 21 February 2018
Temperature: 26.0°C (79°F)
Dewpoint: 15.0°C (59°F) [RH = 51%]
Pressure (altimeter): 29.82 inches Hg (1010.0 mb)
Winds: from the NE (50 degrees) at 7 MPH (6 knots; 3.1 m/s)
Visibility: 2.17 miles (3.49 km)
Ceiling: at least 12,000 feet AGL
Clouds: scattered clouds at 10000 feet AGL
Weather: HZ  (haze)

METAR text: VGHS 211330Z 06004KT 3500 HZ SCT100 26/14 Q1009 NOSIG
Conditions at: VGHS (DHAKA , BD) observed 1330 UTC 21 February 2018
Temperature: 26.0°C (79°F)
Dewpoint: 14.0°C (57°F) [RH = 48%]
Pressure (altimeter): 29.79 inches Hg (1009.0 mb)
Winds: from the ENE (60 degrees) at 5 MPH (4 knots; 2.1 m/s)
Visibility: 2.17 miles (3.49 km)
Ceiling: at least 12,000 feet AGL
Clouds: scattered clouds at 10000 feet AGL
Weather: HZ  (haze)

METAR text: VGHS 211300Z 06006KT 3500 HZ SCT100 26/14 Q1009 NOSIG
Conditions at: VGHS (DHAKA , BD) observed 1300 UTC 21 February 2018
Temperature: 26.0°C (79°F)
Dewpoint: 14.0°C (57°F) [RH = 48%]
Pressure (altimeter): 29.79 inches Hg (1009.0 mb)
Winds: from the ENE (60 degrees) at 7 MPH (6 knots; 3.1 m/s)
Visibility: 2.17 miles (3.49 km)
Ceiling: at least 12,000 feet AGL
Clouds: scattered clouds at 10000 feet AGL
Weather: HZ  (haze)

METAR text: VGHS 211230Z 06004KT 3500 HZ FEW015 SCT100 26/14 Q1009 NOSIG
Conditions at: VGHS (DHAKA , BD) observed 1230 UTC 21 February 2018
Temperature: 26.0°C (79°F)
Dewpoint: 14.0°C (57°F) [RH = 48%]
Pressure (altimeter): 29.79 inches Hg (1009.0 mb)
Winds: from the ENE (60 degrees) at 5 MPH (4 knots; 2.1 m/s)
Visibility: 2.17 miles (3.49 km)
Ceiling: at least 12,000 feet AGL
Clouds: few clouds at 1500 feet AGL
scattered clouds at 10000 feet AGL
Weather: HZ  (haze)

METAR text: VGHS 210730Z 06005KT 3500 HZ NSC 32/18 Q1010 NOSIG
Conditions at: VGHS (DHAKA , BD) observed 0730 UTC 21 February 2018
Temperature: 32.0°C (90°F)
Dewpoint: 18.0°C (64°F) [RH = 43%]
Pressure (altimeter): 29.82 inches Hg (1010.0 mb)
Winds: from the ENE (60 degrees) at 6 MPH (5 knots; 2.6 m/s)
Visibility: 2.17 miles (3.49 km)
Ceiling: at least 12,000 feet AGL
Clouds: sky clear below 12,000 feet AGL
Weather: HZ  (haze)

METAR text: VGHS 210700Z 23007KT 3500 HZ NSC 32/18 Q1011 NOSIG
Conditions at: VGHS (DHAKA , BD) observed 0700 UTC 21 February 2018
Temperature: 32.0°C (90°F)
Dewpoint: 18.0°C (64°F) [RH = 43%]
Pressure (altimeter): 29.85 inches Hg (1011.0 mb)
Winds: from the SW (230 degrees) at 8 MPH (7 knots; 3.6 m/s)
Visibility: 2.17 miles (3.49 km)
Ceiling: at least 12,000 feet AGL
Clouds: sky clear below 12,000 feet AGL
Weather: HZ  (haze)

METAR text: VGHS 210630Z 27006KT 3500 HZ NSC 32/19 Q1011 NOSIG
Conditions at: VGHS (DHAKA , BD) observed 0630 UTC 21 February 2018
Temperature: 32.0°C (90°F)
Dewpoint: 19.0°C (66°F) [RH = 46%]
Pressure (altimeter): 29.85 inches Hg (1011.0 mb)
Winds: from the W (270 degrees) at 7 MPH (6 knots; 3.1 m/s)
Visibility: 2.17 miles (3.49 km)
Ceiling: at least 12,000 feet AGL
Clouds: sky clear below 12,000 feet AGL
Weather: HZ  (haze)

METAR text: VGHS 210600Z 05004KT 3500 HZ NSC 31/19 Q1012 NOSIG
Conditions at: VGHS (DHAKA , BD) observed 0600 UTC 21 February 2018
Temperature: 31.0°C (88°F)
Dewpoint: 19.0°C (66°F) [RH = 49%]
Pressure (altimeter): 29.88 inches Hg (1012.0 mb)
Winds: from the NE (50 degrees) at 5 MPH (4 knots; 2.1 m/s)
Visibility: 2.17 miles (3.49 km)
Ceiling: at least 12,000 feet AGL
Clouds: sky clear below 12,000 feet AGL
Weather: HZ  (haze)